Time;durP1;ratioP1;P1;durP2;ratioP2;P2;SDS_P1;SDS_P2;PMS_P1;PMS_P2;Temp;Humidity;BMP_temperature;BMP_pressure;BME280_temperature;BME280_humidity;BME280_pressure;Samples;Min_cycle;Max_cycle;Signal;HPM_P1;HPM_P2
2022/12/08 00:00:08;;;;;;;1.67;1.33;;;4.50;98.20;;;;;;5008947;28;20460;-75
2022/12/08 00:02:35;;;;;;;1.70;1.50;;;4.50;98.20;;;;;;5005928;28;20492;-75
2022/12/08 00:10:31;;;;;;;1.70;1.40;;;4.50;98.20;;;;;;5007918;28;20487;-75
2022/12/08 00:12:58;;;;;;;1.63;1.40;;;4.50;98.20;;;;;;5010230;28;20484;-75
2022/12/08 00:15:25;;;;;;;1.67;1.40;;;4.50;98.20;;;;;;5007630;28;20464;-75
2022/12/08 00:17:51;;;;;;;1.70;1.47;;;4.50;98.20;;;;;;5005530;28;20479;-75
2022/12/08 00:20:21;;;;;;;1.60;1.40;;;4.50;98.20;;;;;;4999003;28;20489;-75
2022/12/08 00:22:49;;;;;;;1.70;1.50;;;4.50;98.20;;;;;;5009519;28;20506;-75
2022/12/08 00:25:16;;;;;;;1.63;1.40;;;4.50;98.20;;;;;;5009140;28;20511;-75
2022/12/08 00:27:42;;;;;;;1.60;1.30;;;4.50;98.20;;;;;;5006737;28;20482;-75
2022/12/08 00:30:10;;;;;;;1.60;1.30;;;4.50;98.20;;;;;;5001348;28;20488;-75
2022/12/08 00:32:37;;;;;;;1.70;1.50;;;4.50;98.20;;;;;;5010354;28;20502;-75
2022/12/08 00:35:05;;;;;;;1.67;1.40;;;4.50;98.20;;;;;;5007830;28;20475;-74
2022/12/08 00:37:31;;;;;;;1.63;1.30;;;4.50;98.20;;;;;;5007008;28;21191;-75
2022/12/08 00:39:59;;;;;;;1.60;1.40;;;4.50;98.20;;;;;;5009156;28;20475;-75
2022/12/08 00:42:26;;;;;;;1.63;1.40;;;4.50;98.20;;;;;;5006553;28;20491;-74
2022/12/08 00:44:53;;;;;;;1.70;1.50;;;4.50;98.20;;;;;;5009180;28;20471;-75
2022/12/08 00:47:21;;;;;;;1.60;1.30;;;4.50;98.20;;;;;;5008426;28;20505;-75
2022/12/08 00:49:47;;;;;;;1.67;1.43;;;4.50;98.20;;;;;;5010416;28;20487;-75
2022/12/08 00:52:14;;;;;;;1.70;1.47;;;4.50;98.20;;;;;;5007119;28;20487;-75
2022/12/08 00:54:41;;;;;;;1.60;1.30;;;4.50;98.20;;;;;;5009310;28;20851;-75
2022/12/08 00:57:09;;;;;;;1.60;1.40;;;4.50;98.20;;;;;;5002036;28;20479;-75
2022/12/08 00:59:36;;;;;;;1.63;1.40;;;4.40;98.20;;;;;;5010370;28;20459;-75
2022/12/08 01:02:03;;;;;;;1.67;1.40;;;4.40;98.20;;;;;;5000513;28;20487;-75
2022/12/08 01:04:30;;;;;;;1.70;1.30;;;4.40;98.20;;;;;;5012152;28;20464;-75
2022/12/08 01:06:56;;;;;;;1.70;1.50;;;4.40;98.20;;;;;;4995588;28;20484;-75
2022/12/08 01:09:23;;;;;;;1.70;1.40;;;4.50;98.20;;;;;;5002205;28;20504;-75
2022/12/08 01:11:51;;;;;;;1.63;1.40;;;4.50;98.20;;;;;;5003333;28;20483;-75
2022/12/08 01:14:19;;;;;;;1.70;1.40;;;4.50;98.20;;;;;;5014102;28;20919;-75
2022/12/08 01:16:46;;;;;;;1.67;1.40;;;4.50;98.20;;;;;;5002253;28;20479;-75
2022/12/08 01:19:15;;;;;;;1.60;1.30;;;4.50;98.20;;;;;;5014815;28;20460;-75
2022/12/08 01:21:44;;;;;;;1.63;1.40;;;4.50;98.20;;;;;;5003141;28;20491;-75
2022/12/08 01:24:12;;;;;;;1.70;1.60;;;4.50;98.20;;;;;;5012922;28;20506;-75
2022/12/08 01:26:39;;;;;;;1.67;1.40;;;4.50;98.20;;;;;;4997685;28;20472;-75
2022/12/08 01:29:06;;;;;;;1.63;1.30;;;4.50;98.20;;;;;;5012701;28;20576;-75
2022/12/08 01:31:34;;;;;;;1.80;1.67;;;4.50;98.20;;;;;;5003753;28;20978;-75
2022/12/08 01:34:02;;;;;;;1.60;1.30;;;4.40;98.20;;;;;;5018769;28;21305;-75
2022/12/08 01:36:31;;;;;;;1.63;1.40;;;4.40;98.20;;;;;;5005285;28;20483;-75
2022/12/08 01:39:00;;;;;;;1.70;1.40;;;4.40;98.20;;;;;;5019173;28;20996;-75
2022/12/08 01:41:29;;;;;;;2.43;2.03;;;4.40;98.20;;;;;;5005842;28;21019;-75
2022/12/08 01:43:59;;;;;;;1.63;1.40;;;4.40;98.20;;;;;;5014935;28;20484;-75
2022/12/08 01:46:27;;;;;;;1.63;1.30;;;4.50;98.20;;;;;;5004763;28;20494;-75
2022/12/08 01:49:01;;;;;;;1.63;1.40;;;4.50;98.20;;;;;;5020362;28;20475;-75
2022/12/08 01:51:30;;;;;;;1.67;1.30;;;4.50;98.20;;;;;;5005991;28;20497;-75
2022/12/08 01:53:58;;;;;;;1.67;1.40;;;4.50;98.20;;;;;;5020168;28;20488;-75
2022/12/08 01:56:32;;;;;;;1.60;1.30;;;4.50;98.20;;;;;;5004334;28;20483;-75
2022/12/08 01:59:00;;;;;;;1.63;1.40;;;4.50;98.20;;;;;;5017433;28;20467;-75
2022/12/08 02:01:28;;;;;;;1.67;1.40;;;4.60;98.20;;;;;;5009062;28;20516;-75
2022/12/08 02:03:59;;;;;;;1.70;1.60;;;4.60;98.20;;;;;;5014478;28;20487;-75
2022/12/08 02:06:28;;;;;;;1.60;1.30;;;4.60;98.20;;;;;;5004614;28;20483;-74
2022/12/08 02:08:56;;;;;;;1.70;1.50;;;4.60;98.20;;;;;;5020872;28;20861;-75
2022/12/08 02:11:23;;;;;;;1.67;1.30;;;4.60;98.20;;;;;;4996617;28;21034;-74
2022/12/08 02:13:51;;;;;;;1.63;1.30;;;4.60;98.20;;;;;;5012186;28;20487;-75
2022/12/08 02:16:32;;;;;;;3.07;2.10;;;4.70;98.20;;;;;;5003207;28;20482;-75
2022/12/08 02:19:14;;;;;;;1.70;1.50;;;4.70;98.20;;;;;;5017346;28;20467;-75
2022/12/08 02:21:52;;;;;;;1.63;1.30;;;4.70;98.20;;;;;;5006995;28;20494;-75
2022/12/08 02:24:30;;;;;;;1.63;1.40;;;4.70;98.20;;;;;;5005095;28;20491;-75
2022/12/08 02:27:14;;;;;;;5.97;2.80;;;4.70;98.20;;;;;;5005455;28;20488;-75
2022/12/08 02:30:18;;;;;;;1.67;1.40;;;4.70;98.20;;;;;;5011729;28;20492;-75
2022/12/08 02:33:27;;;;;;;1.67;1.30;;;4.70;98.20;;;;;;5008467;28;20510;-76
2022/12/08 02:35:58;;;;;;;1.67;1.30;;;4.70;98.20;;;;;;4999799;28;21213;-75
2022/12/08 02:38:38;;;;;;;1.70;1.40;;;4.80;98.20;;;;;;5004052;28;20468;-75
2022/12/08 02:41:18;;;;;;;1.70;1.40;;;4.70;98.20;;;;;;5000317;28;20985;-75
2022/12/08 02:43:48;;;;;;;1.67;1.30;;;4.80;98.20;;;;;;5017471;28;20938;-75
2022/12/08 02:46:29;;;;;;;1.60;1.37;;;4.80;98.20;;;;;;4993579;28;20484;-75
2022/12/08 02:48:57;;;;;;;1.60;1.30;;;4.80;98.20;;;;;;5011634;28;20507;-75
2022/12/08 02:51:26;;;;;;;1.60;1.40;;;4.80;98.20;;;;;;5002674;28;20475;-74
2022/12/08 02:53:53;;;;;;;1.70;1.40;;;4.80;98.20;;;;;;5005311;28;20491;-75
2022/12/08 02:56:37;;;;;;;1.63;1.30;;;4.80;98.20;;;;;;5016291;22;20471;-74
2022/12/08 02:59:20;;;;;;;1.60;1.30;;;4.80;98.20;;;;;;5004986;28;21032;-74
2022/12/08 03:02:04;;;;;;;1.67;1.40;;;4.80;98.20;;;;;;5008081;28;20475;-74
2022/12/08 03:04:42;;;;;;;1.63;1.40;;;4.80;98.20;;;;;;5021541;28;20826;-74
2022/12/08 03:07:18;;;;;;;1.70;1.40;;;4.80;98.20;;;;;;5013395;28;20482;-74
2022/12/08 03:09:51;;;;;;;1.63;1.30;;;4.80;98.20;;;;;;5011051;28;20491;-74
2022/12/08 03:12:24;;;;;;;1.70;1.40;;;4.80;98.20;;;;;;5006862;28;20479;-74
2022/12/08 03:14:56;;;;;;;1.70;1.40;;;4.80;98.20;;;;;;5010063;28;20470;-74
2022/12/08 03:17:29;;;;;;;1.60;1.30;;;4.80;98.20;;;;;;5015250;28;20483;-74
2022/12/08 03:20:00;;;;;;;1.70;1.40;;;4.80;98.20;;;;;;5010319;28;20452;-74
2022/12/08 03:22:29;;;;;;;1.70;1.40;;;4.80;98.20;;;;;;5016537;28;21015;-74
2022/12/08 03:24:57;;;;;;;1.60;1.30;;;4.80;98.20;;;;;;5009441;28;20877;-75
2022/12/08 03:27:27;;;;;;;1.70;1.40;;;4.80;98.20;;;;;;5014716;28;20479;-75
2022/12/08 03:29:55;;;;;;;1.60;1.30;;;4.80;98.20;;;;;;5011261;28;20993;-75
2022/12/08 03:32:27;;;;;;;1.70;1.50;;;4.80;98.20;;;;;;5010162;28;20494;-74
2022/12/08 03:34:55;;;;;;;1.60;1.30;;;4.80;98.20;;;;;;5011387;28;20488;-74
2022/12/08 03:37:23;;;;;;;1.67;1.40;;;4.80;98.20;;;;;;5007576;28;20494;-75
2022/12/08 03:39:51;;;;;;;1.63;1.30;;;4.80;98.20;;;;;;5011107;28;20837;-74
2022/12/08 03:42:18;;;;;;;1.63;1.30;;;4.80;98.20;;;;;;5015291;28;20479;-74
2022/12/08 03:44:45;;;;;;;1.60;1.30;;;4.80;98.20;;;;;;5012521;28;20522;-75
2022/12/08 03:47:11;;;;;;;1.63;1.30;;;4.80;98.20;;;;;;5012480;28;20486;-74
2022/12/08 03:49:39;;;;;;;1.70;1.43;;;4.80;98.20;;;;;;5012973;28;20464;-75
2022/12/08 03:52:06;;;;;;;1.60;1.40;;;4.80;98.20;;;;;;5013712;28;20479;-75
2022/12/08 03:54:33;;;;;;;1.60;1.30;;;4.80;98.20;;;;;;5012408;28;20465;-75
2022/12/08 03:57:01;;;;;;;1.60;1.30;;;4.80;98.20;;;;;;5021628;28;20862;-74
2022/12/08 03:59:28;;;;;;;1.60;1.30;;;4.80;98.20;;;;;;5026416;28;20459;-74
2022/12/08 04:01:54;;;;;;;1.70;1.40;;;4.80;98.20;;;;;;5021404;28;20550;-74
2022/12/08 04:04:21;;;;;;;1.60;1.40;;;4.80;98.20;;;;;;5030668;28;20580;-74
2022/12/08 04:06:49;;;;;;;1.60;1.30;;;4.80;98.20;;;;;;5016052;28;20487;-75
2022/12/08 04:09:16;;;;;;;1.63;1.40;;;4.80;98.20;;;;;;5021259;28;20502;-75
2022/12/08 04:11:42;;;;;;;1.70;1.40;;;4.80;98.20;;;;;;5020706;28;20478;-75
2022/12/08 04:14:11;;;;;;;1.67;1.30;;;4.80;98.20;;;;;;5027348;28;20459;-74
2022/12/08 04:16:37;;;;;;;1.67;1.33;;;4.80;98.20;;;;;;5020615;28;20483;-74
2022/12/08 04:19:04;;;;;;;1.60;1.30;;;4.80;98.20;;;;;;5027566;28;20464;-76
2022/12/08 04:21:31;;;;;;;1.63;1.30;;;4.80;98.20;;;;;;5020613;28;20490;-75
2022/12/08 04:23:58;;;;;;;1.60;1.30;;;4.80;98.20;;;;;;5026702;28;20463;-74
2022/12/08 04:26:25;;;;;;;1.63;1.40;;;4.80;98.20;;;;;;5020016;28;20489;-74
2022/12/08 04:28:51;;;;;;;1.63;1.30;;;4.80;98.20;;;;;;5026535;28;20463;-74
2022/12/08 04:31:20;;;;;;;1.60;1.30;;;4.80;98.20;;;;;;5019679;28;20478;-75
2022/12/08 04:33:47;;;;;;;1.70;1.40;;;4.80;98.20;;;;;;5027461;28;20463;-74
2022/12/08 04:36:14;;;;;;;1.67;1.40;;;4.80;98.20;;;;;;5018832;28;20485;-75
2022/12/08 04:38:41;;;;;;;1.60;1.40;;;4.80;98.20;;;;;;5028320;28;20470;-74
2022/12/08 04:41:11;;;;;;;1.67;1.40;;;4.80;98.20;;;;;;5018925;28;20486;-74
2022/12/08 04:43:37;;;;;;;1.60;1.40;;;4.90;98.20;;;;;;5029514;28;20466;-74
2022/12/08 04:46:07;;;;;;;1.60;1.30;;;4.90;98.20;;;;;;5017816;28;20491;-75
2022/12/08 04:48:37;;;;;;;1.67;1.30;;;4.90;98.20;;;;;;5029749;28;20463;-77
2022/12/08 04:51:04;;;;;;;1.60;1.30;;;4.90;98.20;;;;;;5016779;28;20485;-76
2022/12/08 04:53:31;;;;;;;2.63;2.43;;;4.90;98.20;;;;;;5028630;28;20467;-76
2022/12/08 04:55:58;;;;;;;1.70;1.40;;;4.90;98.20;;;;;;5015463;28;20487;-76
2022/12/08 04:58:25;;;;;;;1.60;1.30;;;4.90;98.20;;;;;;5025199;28;20964;-75
2022/12/08 05:00:51;;;;;;;1.60;1.30;;;4.90;98.20;;;;;;5019688;28;20456;-75
2022/12/08 05:03:18;;;;;;;1.70;1.50;;;4.90;98.20;;;;;;5026837;28;20468;-76
2022/12/08 05:05:46;;;;;;;1.60;1.40;;;4.90;98.20;;;;;;5016268;28;20479;-76
2022/12/08 05:08:13;;;;;;;1.60;1.30;;;4.90;98.20;;;;;;5000151;28;20486;-76
2022/12/08 05:10:40;;;;;;;1.60;1.27;;;4.90;98.20;;;;;;5025887;28;20490;-76
2022/12/08 05:13:07;;;;;;;1.60;1.30;;;4.90;98.20;;;;;;5013467;28;20484;-76
2022/12/08 05:15:34;;;;;;;1.60;1.30;;;4.90;98.20;;;;;;5026315;28;20519;-78
2022/12/08 05:18:01;;;;;;;1.63;1.30;;;4.90;98.20;;;;;;5003160;28;21130;-77
2022/12/08 05:20:28;;;;;;;1.67;1.40;;;4.90;98.20;;;;;;5027308;28;20467;-77
2022/12/08 05:22:56;;;;;;;1.70;1.50;;;4.90;98.20;;;;;;5004249;28;20484;-78
2022/12/08 05:25:23;;;;;;;1.60;1.30;;;4.90;98.20;;;;;;5024534;28;20487;-78
2022/12/08 05:27:50;;;;;;;1.70;1.40;;;4.90;98.20;;;;;;5008900;28;20478;-76
2022/12/08 05:30:17;;;;;;;1.63;1.30;;;4.90;98.20;;;;;;5025220;28;20578;-77
2022/12/08 05:32:44;;;;;;;1.60;1.30;;;4.90;98.20;;;;;;5007551;28;20569;-77
2022/12/08 05:35:11;;;;;;;1.60;1.30;;;4.90;98.20;;;;;;5024048;28;20475;-76
2022/12/08 05:37:38;;;;;;;1.67;1.40;;;4.80;98.20;;;;;;5015357;28;20474;-76
2022/12/08 05:40:07;;;;;;;1.63;1.30;;;4.80;98.20;;;;;;5025126;28;20470;-76
2022/12/08 05:42:34;;;;;;;1.70;1.40;;;4.80;98.20;;;;;;5007582;28;20486;-77
2022/12/08 05:45:01;;;;;;;1.70;1.40;;;4.80;98.20;;;;;;5023063;28;20493;-76
2022/12/08 05:47:28;;;;;;;1.63;1.40;;;4.80;98.20;;;;;;5007207;28;20490;-75
2022/12/08 05:49:54;;;;;;;1.60;1.40;;;4.90;98.20;;;;;;5022935;28;20495;-75
2022/12/08 05:52:21;;;;;;;1.60;1.30;;;4.80;98.20;;;;;;5009541;28;20487;-75
2022/12/08 05:54:48;;;;;;;1.67;1.47;;;4.90;98.20;;;;;;5024340;28;20458;-76
2022/12/08 05:57:16;;;;;;;1.60;1.30;;;4.90;98.20;;;;;;5015114;28;20477;-76
2022/12/08 05:59:43;;;;;;;1.70;1.40;;;4.90;98.20;;;;;;5025023;28;20459;-76
2022/12/08 06:02:09;;;;;;;1.70;1.40;;;4.90;98.20;;;;;;5014768;28;20512;-76
2022/12/08 06:04:36;;;;;;;1.70;1.40;;;4.90;98.20;;;;;;5026195;28;20785;-76
2022/12/08 06:07:03;;;;;;;1.77;1.57;;;4.90;98.20;;;;;;5007601;28;20573;-76
2022/12/08 06:09:30;;;;;;;1.70;1.40;;;4.90;98.20;;;;;;5021400;28;20473;-76
2022/12/08 06:11:57;;;;;;;1.67;1.40;;;4.90;98.20;;;;;;5015614;28;20497;-77
2022/12/08 06:14:25;;;;;;;1.70;1.40;;;4.90;98.20;;;;;;5023713;28;20579;-77
2022/12/08 06:16:52;;;;;;;1.63;1.40;;;4.90;98.20;;;;;;5013556;28;20491;-77
2022/12/08 06:19:19;;;;;;;1.60;1.30;;;4.80;98.20;;;;;;5025921;28;20834;-78
2022/12/08 06:21:46;;;;;;;2.43;2.23;;;4.80;98.20;;;;;;5016022;28;20548;-78
2022/12/08 06:24:13;;;;;;;1.97;1.77;;;4.80;98.20;;;;;;5022729;28;20463;-77
2022/12/08 06:26:40;;;;;;;1.63;1.30;;;4.80;98.20;;;;;;5014014;28;20594;-78
2022/12/08 06:29:07;;;;;;;1.67;1.30;;;4.80;98.20;;;;;;5021459;28;20558;-77
2022/12/08 06:31:35;;;;;;;1.67;1.40;;;4.80;98.20;;;;;;5014732;28;20507;-78
2022/12/08 06:34:02;;;;;;;1.70;1.50;;;4.80;98.20;;;;;;5020817;28;20540;-77
2022/12/08 06:36:29;;;;;;;1.67;1.30;;;4.80;98.20;;;;;;5015509;28;20479;-77
2022/12/08 06:38:56;;;;;;;1.63;1.37;;;4.80;98.20;;;;;;5030746;28;20975;-78
2022/12/08 06:41:24;;;;;;;1.70;1.40;;;4.80;98.20;;;;;;5019844;28;20618;-78
2022/12/08 06:43:51;;;;;;;1.67;1.40;;;4.80;98.20;;;;;;5023795;28;20475;-75
2022/12/08 06:46:19;;;;;;;1.93;1.73;;;4.70;98.20;;;;;;5016845;28;20473;-77
2022/12/08 06:48:49;;;;;;;1.63;1.30;;;4.70;98.20;;;;;;5027985;28;20550;-77
2022/12/08 06:51:18;;;;;;;1.70;1.50;;;4.80;98.20;;;;;;5012933;28;20486;-77
2022/12/08 06:53:46;;;;;;;2.33;2.07;;;4.70;98.20;;;;;;5020238;28;20463;-77
2022/12/08 06:56:14;;;;;;;1.67;1.30;;;4.80;98.20;;;;;;5014618;28;20478;-77
2022/12/08 06:58:41;;;;;;;1.63;1.40;;;4.70;98.20;;;;;;5017674;28;20471;-77
2022/12/08 07:01:10;;;;;;;1.60;1.30;;;4.70;98.20;;;;;;5021211;28;20506;-77
2022/12/08 07:03:37;;;;;;;1.67;1.43;;;4.80;98.20;;;;;;5028520;28;20463;-77
2022/12/08 07:06:06;;;;;;;1.63;1.30;;;4.80;98.20;;;;;;5016368;28;20522;-78
2022/12/08 07:08:34;;;;;;;1.70;1.50;;;4.80;98.20;;;;;;5018603;28;20554;-76
2022/12/08 07:11:07;;;;;;;1.70;1.40;;;4.80;98.20;;;;;;5015601;28;20763;-76
2022/12/08 07:13:34;;;;;;;1.60;1.40;;;4.70;98.20;;;;;;5021061;28;20549;-78
2022/12/08 07:16:01;;;;;;;1.67;1.30;;;4.70;98.20;;;;;;5017194;28;20493;-78
2022/12/08 07:18:27;;;;;;;1.60;1.30;;;4.70;98.20;;;;;;5019533;28;20558;-77
2022/12/08 07:20:54;;;;;;;1.70;1.50;;;4.70;98.20;;;;;;5015895;28;20463;-77
2022/12/08 07:23:22;;;;;;;1.70;1.40;;;4.70;98.20;;;;;;5018442;28;20481;-77
2022/12/08 07:25:49;;;;;;;1.70;1.60;;;4.70;98.20;;;;;;5014718;28;20483;-77
2022/12/08 07:28:16;;;;;;;1.60;1.40;;;4.70;98.20;;;;;;5014693;28;20483;-76
2022/12/08 07:30:43;;;;;;;1.70;1.40;;;4.70;98.20;;;;;;5026721;28;20547;-76
2022/12/08 07:33:09;;;;;;;1.70;1.40;;;4.70;98.20;;;;;;5008042;28;20476;-75
2022/12/08 07:35:36;;;;;;;1.70;1.53;;;4.70;98.20;;;;;;5026148;28;20477;-76
2022/12/08 07:38:03;;;;;;;1.70;1.40;;;4.70;98.20;;;;;;5010016;28;20492;-76
2022/12/08 07:40:31;;;;;;;1.67;1.37;;;4.70;98.20;;;;;;5027120;28;20476;-75
2022/12/08 07:42:58;;;;;;;1.70;1.50;;;4.70;98.20;;;;;;5017992;28;20483;-75
2022/12/08 07:45:25;;;;;;;1.70;1.53;;;4.70;98.20;;;;;;5029291;28;20511;-76
2022/12/08 07:47:52;;;;;;;1.70;1.50;;;4.70;98.20;;;;;;5006020;28;20490;-76
2022/12/08 07:50:19;;;;;;;1.63;1.30;;;4.70;98.20;;;;;;5027858;28;21017;-77
2022/12/08 07:52:46;;;;;;;1.70;1.50;;;4.70;98.20;;;;;;5008297;28;20489;-76
2022/12/08 07:55:12;;;;;;;1.70;1.50;;;4.60;98.20;;;;;;5024825;28;20487;-76
2022/12/08 07:57:40;;;;;;;2.53;2.33;;;4.60;98.20;;;;;;5008718;28;20492;-75
2022/12/08 08:00:08;;;;;;;1.70;1.40;;;4.60;98.20;;;;;;5024877;28;20463;-77
2022/12/08 08:02:35;;;;;;;1.67;1.30;;;4.60;98.20;;;;;;5009166;28;20569;-76
2022/12/08 08:05:02;;;;;;;1.60;1.30;;;4.60;98.20;;;;;;5025061;28;20487;-76
2022/12/08 08:07:31;;;;;;;1.70;1.40;;;4.60;98.20;;;;;;5004247;28;20480;-76
2022/12/08 08:09:57;;;;;;;1.70;1.50;;;4.50;98.20;;;;;;5024036;28;20533;-75
2022/12/08 08:12:24;;;;;;;1.70;1.50;;;4.50;98.20;;;;;;5010034;28;21123;-77
2022/12/08 08:14:53;;;;;;;1.67;1.47;;;4.50;98.20;;;;;;5026507;28;20490;-79
2022/12/08 08:17:19;;;;;;;1.70;1.47;;;4.50;98.20;;;;;;5010332;28;20480;-77
2022/12/08 08:19:46;;;;;;;1.63;1.40;;;4.50;98.20;;;;;;5027899;28;20956;-77
2022/12/08 08:22:13;;;;;;;1.63;1.40;;;4.50;98.20;;;;;;5018558;28;20521;-75
2022/12/08 08:24:40;;;;;;;2.17;1.97;;;4.50;98.20;;;;;;5026634;28;20473;-76
2022/12/08 08:27:07;;;;;;;3.00;2.80;;;4.60;98.20;;;;;;5018103;28;20492;-77
2022/12/08 08:29:34;;;;;;;1.60;1.30;;;4.60;98.20;;;;;;5028062;28;20489;-78
2022/12/08 08:32:02;;;;;;;1.70;1.40;;;4.60;98.20;;;;;;5017703;28;20527;-73
2022/12/08 08:34:28;;;;;;;1.70;1.50;;;4.60;98.20;;;;;;5018916;28;20459;-73
2022/12/08 08:36:55;;;;;;;2.13;1.93;;;4.60;98.20;;;;;;5012337;28;20488;-73
2022/12/08 08:39:22;;;;;;;1.63;1.30;;;4.60;98.20;;;;;;5023933;28;20459;-73
2022/12/08 08:41:49;;;;;;;1.60;1.30;;;4.70;98.20;;;;;;5015615;28;20479;-72
2022/12/08 08:44:16;;;;;;;1.70;1.40;;;4.60;98.20;;;;;;5021746;28;20738;-73
2022/12/08 08:46:42;;;;;;;1.60;1.30;;;4.60;98.20;;;;;;5010700;28;20577;-73
2022/12/08 08:49:10;;;;;;;1.63;1.30;;;4.60;98.20;;;;;;5021791;28;20459;-73
2022/12/08 08:51:37;;;;;;;1.70;1.40;;;4.70;98.20;;;;;;5014161;28;20468;-74
2022/12/08 08:54:04;;;;;;;1.60;1.30;;;4.70;98.20;;;;;;5018124;28;20463;-73
2022/12/08 08:56:31;;;;;;;1.60;1.30;;;4.70;98.20;;;;;;5010086;28;20949;-75
2022/12/08 08:58:58;;;;;;;1.60;1.40;;;4.70;98.20;;;;;;5015524;28;20463;-75
2022/12/08 09:01:26;;;;;;;1.70;1.47;;;4.70;98.20;;;;;;5013718;28;20480;-75
2022/12/08 09:03:53;;;;;;;1.70;1.50;;;4.70;98.20;;;;;;5020992;28;20459;-74
2022/12/08 09:06:22;;;;;;;1.67;1.30;;;4.70;98.20;;;;;;5013051;28;20479;-74
2022/12/08 09:08:49;;;;;;;1.63;1.30;;;4.70;98.20;;;;;;5014787;28;20549;-73
2022/12/08 09:11:17;;;;;;;1.60;1.30;;;4.70;98.20;;;;;;5013449;28;21142;-73
2022/12/08 09:13:44;;;;;;;1.70;1.43;;;4.70;98.20;;;;;;5016680;28;20467;-74
2022/12/08 09:16:11;;;;;;;2.53;2.33;;;4.80;98.20;;;;;;5014606;28;20616;-73
2022/12/08 09:18:39;;;;;;;1.70;1.40;;;4.80;98.20;;;;;;5019050;28;20469;-73
2022/12/08 09:21:07;;;;;;;1.70;1.40;;;4.70;98.20;;;;;;5015845;28;20463;-73
2022/12/08 09:23:36;;;;;;;1.63;1.33;;;4.80;98.20;;;;;;5019242;28;20467;-77
2022/12/08 09:26:03;;;;;;;1.60;1.30;;;4.80;98.20;;;;;;5013998;28;20483;-74
2022/12/08 09:28:30;;;;;;;1.60;1.30;;;4.80;98.20;;;;;;5020463;28;20473;-75
2022/12/08 09:30:58;;;;;;;1.67;1.40;;;4.80;98.20;;;;;;5015040;28;21193;-74
2022/12/08 09:36:11;;;;;;;1.63;1.30;;;4.90;98.20;;;;;;5012808;28;20497;-74
2022/12/08 09:38:45;;;;;;;1.60;1.30;;;4.90;98.20;;;;;;5027812;28;20917;-74
2022/12/08 09:41:36;;;;;;;1.70;1.40;;;4.80;98.20;;;;;;5012567;28;20562;-75
2022/12/08 09:44:31;;;;;;;1.67;1.33;;;4.80;98.20;;;;;;5020065;28;20703;-75
2022/12/08 09:47:04;;;;;;;1.70;1.50;;;4.80;98.20;;;;;;5014906;28;20928;-75
2022/12/08 09:49:38;;;;;;;1.60;1.30;;;4.80;98.20;;;;;;5021497;28;20454;-73
2022/12/08 09:52:12;;;;;;;1.70;1.30;;;4.80;98.20;;;;;;5010279;28;20471;-75
2022/12/08 09:54:41;;;;;;;1.70;1.40;;;4.80;98.20;;;;;;5023862;28;20458;-75
2022/12/08 09:57:14;;;;;;;1.60;1.30;;;4.80;98.20;;;;;;5016764;28;21252;-73
2022/12/08 09:59:47;;;;;;;1.60;1.40;;;4.90;98.20;;;;;;5030015;28;20474;-74
2022/12/08 10:02:26;;;;;;;1.70;1.43;;;4.90;98.20;;;;;;5017004;28;20562;-73
2022/12/08 10:04:55;;;;;;;1.63;1.30;;;5.00;98.20;;;;;;5025747;28;20482;-74
2022/12/08 10:07:33;;;;;;;1.70;1.50;;;5.00;98.20;;;;;;5009948;28;20483;-74
2022/12/08 10:10:07;;;;;;;1.63;1.30;;;5.00;98.20;;;;;;5026234;28;20554;-74
2022/12/08 10:12:42;;;;;;;1.60;1.30;;;5.00;98.20;;;;;;5011446;28;20475;-74
2022/12/08 10:15:31;;;;;;;1.70;1.40;;;5.00;98.20;;;;;;5027619;28;21050;-74
2022/12/08 10:18:02;;;;;;;1.63;1.30;;;5.10;98.20;;;;;;5008012;28;20483;-73
2022/12/08 10:20:37;;;;;;;1.70;1.40;;;5.10;98.20;;;;;;5029213;28;20873;-74
2022/12/08 10:23:27;;;;;;;1.67;1.37;;;5.10;98.20;;;;;;5005789;28;20497;-74
2022/12/08 10:26:00;;;;;;;1.60;1.30;;;5.10;98.20;;;;;;5017736;28;20491;-75
2022/12/08 10:28:27;;;;;;;1.60;1.30;;;5.10;98.20;;;;;;5017337;28;20633;-73
2022/12/08 10:30:54;;;;;;;1.70;1.40;;;5.10;98.20;;;;;;5021724;28;20467;-75
2022/12/08 10:33:23;;;;;;;1.63;1.30;;;5.10;98.20;;;;;;5027453;28;20483;-74
2022/12/08 10:35:51;;;;;;;1.67;1.30;;;5.10;98.20;;;;;;5017585;28;20479;-74
2022/12/08 10:38:25;;;;;;;1.60;1.30;;;5.10;98.20;;;;;;5019302;28;20952;-74
2022/12/08 10:40:57;;;;;;;1.60;1.30;;;5.10;98.20;;;;;;5019673;28;20467;-74
2022/12/08 10:43:27;;;;;;;2.30;2.10;;;5.10;98.20;;;;;;5026241;28;20456;-73
2022/12/08 10:45:54;;;;;;;1.67;1.30;;;5.20;98.20;;;;;;5021019;28;20498;-73
2022/12/08 10:48:25;;;;;;;2.20;2.00;;;5.10;98.20;;;;;;5018566;28;20981;-73
2022/12/08 10:50:55;;;;;;;2.13;1.93;;;5.10;98.20;;;;;;5017711;28;20459;-73
2022/12/08 10:53:24;;;;;;;1.70;1.37;;;5.10;98.20;;;;;;5026835;28;20526;-73
2022/12/08 10:55:53;;;;;;;1.70;1.50;;;5.10;98.20;;;;;;5016046;28;20556;-73
2022/12/08 10:58:31;;;;;;;1.70;1.40;;;5.10;98.20;;;;;;5015742;28;20463;-74
2022/12/08 11:01:01;;;;;;;1.70;1.40;;;5.20;98.20;;;;;;5019811;28;20482;-73
2022/12/08 11:03:31;;;;;;;1.60;1.30;;;5.20;98.20;;;;;;5019045;28;20463;-73
2022/12/08 11:05:59;;;;;;;1.60;1.30;;;5.30;98.20;;;;;;5017019;28;20836;-73
2022/12/08 11:08:28;;;;;;;1.70;1.30;;;5.30;98.20;;;;;;5016468;28;20467;-73
2022/12/08 11:10:55;;;;;;;1.70;1.30;;;5.30;98.20;;;;;;5017886;28;20463;-73
2022/12/08 11:13:25;;;;;;;1.70;1.40;;;5.40;98.20;;;;;;5016742;28;20487;-73
2022/12/08 11:15:54;;;;;;;1.60;1.30;;;5.40;98.20;;;;;;5013931;28;20479;-73
2022/12/08 11:18:26;;;;;;;1.70;1.40;;;5.30;98.20;;;;;;5014013;28;20522;-73
2022/12/08 11:20:59;;;;;;;1.60;1.30;;;5.30;98.20;;;;;;5017231;28;21562;-73
2022/12/08 11:23:39;;;;;;;1.63;1.30;;;5.40;98.20;;;;;;5018811;28;20466;-73
2022/12/08 11:26:15;;;;;;;1.70;1.50;;;5.40;98.20;;;;;;5018028;28;20482;-72
2022/12/08 11:28:42;;;;;;;1.63;1.30;;;5.40;98.20;;;;;;5018590;28;20464;-76
2022/12/08 11:31:22;;;;;;;1.60;1.30;;;5.40;98.20;;;;;;5016282;28;20681;-74
2022/12/08 11:33:51;;;;;;;1.60;1.30;;;5.40;98.20;;;;;;5020364;28;20510;-72
2022/12/08 11:36:22;;;;;;;1.70;1.50;;;5.40;98.20;;;;;;5014178;28;20480;-73
2022/12/08 11:38:59;;;;;;;1.63;1.30;;;5.40;98.20;;;;;;5020465;28;20586;-74
2022/12/08 11:41:30;;;;;;;1.70;1.40;;;5.40;98.20;;;;;;5015341;28;20486;-73
2022/12/08 11:44:05;;;;;;;1.70;1.40;;;5.40;98.20;;;;;;5022584;28;20964;-73
2022/12/08 11:46:40;;;;;;;1.70;1.40;;;5.40;98.20;;;;;;5010922;28;20489;-73
2022/12/08 11:49:11;;;;;;;1.70;1.40;;;5.40;98.20;;;;;;5017473;28;20924;-73
2022/12/08 11:51:43;;;;;;;1.70;1.30;;;5.50;98.20;;;;;;5017574;28;20479;-73
2022/12/08 11:54:18;;;;;;;1.67;1.33;;;5.50;98.20;;;;;;5025934;28;20473;-73
2022/12/08 11:56:48;;;;;;;1.70;1.43;;;5.50;98.20;;;;;;5010055;28;20482;-73
2022/12/08 11:59:23;;;;;;;1.70;1.40;;;5.50;98.20;;;;;;5019423;28;20460;-74
2022/12/08 12:01:52;;;;;;;1.70;1.30;;;5.60;98.20;;;;;;5009679;28;20504;-75
2022/12/08 12:04:26;;;;;;;1.60;1.30;;;5.60;98.20;;;;;;5021156;28;20469;-76
2022/12/08 12:07:26;;;;;;;1.63;1.30;;;5.60;98.20;;;;;;5014666;28;21124;-75
2022/12/08 12:10:06;;;;;;;1.60;1.30;;;5.70;98.20;;;;;;5025895;28;20471;-73
2022/12/08 12:12:50;;;;;;;1.70;1.40;;;5.70;98.20;;;;;;5007679;28;20657;-73
2022/12/08 12:15:46;;;;;;;1.70;1.37;;;5.80;98.20;;;;;;5022989;28;20481;-74
2022/12/08 12:18:25;;;;;;;1.60;1.30;;;5.80;98.20;;;;;;5003037;28;21107;-73
2022/12/08 12:20:55;;;;;;;1.70;1.40;;;5.90;98.20;;;;;;5015134;28;20455;-73
2022/12/08 12:23:28;;;;;;;1.67;1.30;;;6.00;98.20;;;;;;5014539;28;20455;-73
2022/12/08 12:25:59;;;;;;;1.70;1.30;;;6.00;98.20;;;;;;5014086;28;20537;-73
2022/12/08 12:28:28;;;;;;;1.60;1.30;;;6.10;98.20;;;;;;5010214;28;20460;-73
2022/12/08 12:31:00;;;;;;;1.60;1.30;;;6.20;98.20;;;;;;5015266;28;20571;-74
2022/12/08 12:33:31;;;;;;;1.70;1.40;;;6.30;98.20;;;;;;5026139;28;21162;-75
2022/12/08 12:36:01;;;;;;;1.63;1.30;;;6.40;98.20;;;;;;5016536;28;20478;-75
2022/12/08 12:39:02;;;;;;;1.70;1.60;;;6.50;98.20;;;;;;5027164;28;20464;-74
2022/12/08 12:41:35;;;;;;;1.67;1.33;;;6.50;98.20;;;;;;5010435;28;20484;-74
2022/12/08 12:44:38;;;;;;;1.70;1.40;;;6.60;98.20;;;;;;5017298;28;20452;-74
2022/12/08 12:47:10;;;;;;;1.60;1.27;;;6.60;98.20;;;;;;5011764;28;20889;-73
2022/12/08 12:50:06;;;;;;;1.70;1.30;;;6.50;98.20;;;;;;5019558;28;20466;-73
2022/12/08 12:52:52;;;;;;;1.70;1.40;;;6.50;98.20;;;;;;5007069;28;20507;-73
2022/12/08 12:55:50;;;;;;;1.70;1.60;;;6.40;98.20;;;;;;5023894;28;20487;-73
2022/12/08 12:58:34;;;;;;;1.60;1.30;;;6.40;98.20;;;;;;4996810;28;20473;-74
2022/12/08 13:01:43;;;;;;;1.60;1.27;;;6.30;98.20;;;;;;5013733;28;20463;-73
2022/12/08 13:04:33;;;;;;;1.67;1.30;;;6.30;98.20;;;;;;5020001;28;20486;-73
2022/12/08 13:07:01;;;;;;;1.70;1.40;;;6.20;98.20;;;;;;4987914;23;20498;-72
2022/12/08 13:09:33;;;;;;;1.60;1.30;;;6.20;98.20;;;;;;4967695;28;20466;-72
2022/12/08 13:12:08;;;;;;;1.70;1.40;;;6.20;98.20;;;;;;4955747;28;20497;-72
2022/12/08 13:14:36;;;;;;;1.60;1.23;;;6.20;98.20;;;;;;4967349;28;20516;-72
2022/12/08 13:17:10;;;;;;;1.60;1.30;;;6.10;98.20;;;;;;4948121;28;20490;-72
2022/12/08 13:19:39;;;;;;;1.67;1.30;;;6.10;98.20;;;;;;4960812;28;20465;-73
2022/12/08 13:22:39;;;;;;;1.60;1.20;;;6.10;98.20;;;;;;4957497;28;20485;-73